Wheeler, TX (79096)

6:46 PM CDT on July 23, 2014 (GMT -0500)
WT_Meso McLean 1E (MMCST2) Elev 2862 ft | 35.24 °N, 100.57 °W | Change Station

Current weather conditions updated 51 minutes ago

Partly Cloudy
Partly Cloudy
93 °F
Feels Like 94 °F
N
4
Wind Variable Wind from SW
Gusts 6.0 mph

Tomorrow is forecast to be nearly the same temperature as today.

Today
High -- | Low -- °F
--% Chance of Precip.
Yesterday
High -- | Low -- °F
Precip. -- in
6:42 AM 8:51 PM
Waning Crescent, 8% visible
Pressure 30.09 in
Visibility 10.0 miles
Clouds Clear
Heat Index 94 °F
Dew Point 62 °F
Humidity 36%
Rainfall -999.00 in
Snow Depth Not available.
UV 2 out of 12
Pollen 4.60 out of 12
Air Quality Not available.
Flu Activity Not available.
METAR KHHF 232335Z AUTO 07006KT 10SM CLR 37/15 A3009 RMK AO2 T03650152

More Conditions Fewer Conditions

Pressure 30.09 in
Visibility 10.0 miles
Clouds Clear
Heat Index 94 °F
Dew Point 62 °F
Humidity 36%
Rainfall -999.00 in
Snow Depth Not available.
UV 2 out of 12
Pollen 4.60 out of 12
Air Quality Not available.
Flu Activity Not available.
METAR KHHF 232335Z AUTO 07006KT 10SM CLR 37/15 A3009 RMK AO2 T03650152

More Conditions Fewer Conditions

10-Day Weather Forecast

Almanac

Astronomy

Jul. 23, 2014 Rise Set
Actual Time 6:42 AM CDT 8:51 PM CDT
Civil Twilight 6:14 AM CDT 9:20 PM CDT
Nautical Twilight 5:39 AM CDT 9:55 PM CDT
Astronomical Twilight 5:01 AM CDT 10:33 PM CDT
Moon 4:02 AM CDT 6:22 PM CDT
Length of Visible Light 15h 06m
Length of Day
14h 08m
Tomorrow will be 1m 25s shorter.
Waning Crescent, 8% of the Moon is Illuminated
Today
Waning Crescent
Jul 26
New
Aug 3
First Quarter
Aug 10
Full
Aug 17
Last Quarter

Today's Extremes

State Highs State Lows

Community

WunderPhotos

Upload Photos

1,736,817 photos uploaded!

Nearby

Snow Depth

Station Depth Elevation
No new snow has been reported.

Earthquake Activity

City Distance Mag. Time & Date
No recent earthquake activity has been reported nearby.
Minimum magnitude displayed is 2.5.

Coastal Water Temperatures

Place Temperature
No Stations Reporting

Nearby Weather Stations

Station Location Temp. Heat Index Dew Point Humidity Wind Precip. Elev Updated Type
RAWS WHEELER RAWS TX, Wheeler, TX 98 °F 98 °F 59 °F 28% South  at  4 mph 0.00 in / hr 2375 ft 5:38 PM CDT MADIS
WT_Meso McLean 1E, McLean, TX 93 °F 94 °F 62 °F 36% SW  at  4 mph 0.00 in / hr 2862 ft 5:55 PM CDT MADIS

Show More Stations Show Fewer Stations